createdAt,value
2023-03-17T00:00:59.184Z,14.63
2023-03-17T00:02:03.076Z,15.38
2023-03-17T00:03:06.046Z,12.15
2023-03-17T00:04:18.936Z,11.93
2023-03-17T00:05:27.621Z,12.73
2023-03-17T00:06:31.144Z,11.25
2023-03-17T00:07:41.592Z,12.23
2023-03-17T00:08:54.148Z,9.98
2023-03-17T00:10:00.902Z,13.15
2023-03-17T00:11:07.791Z,12.00
2023-03-17T00:12:26.048Z,16.58
2023-03-17T00:13:32.286Z,19.35
2023-03-17T00:14:37.248Z,16.00
2023-03-17T00:15:41.283Z,13.07
2023-03-17T00:17:58.286Z,15.15
2023-03-17T00:19:04.307Z,14.55
2023-03-17T00:20:40.493Z,12.65
2023-03-17T00:21:43.119Z,13.90
2023-03-17T00:22:47.236Z,13.18
2023-03-17T00:23:52.316Z,13.18
2023-03-17T00:24:55.754Z,12.30
2023-03-17T00:26:06.561Z,16.10
2023-03-17T00:27:31.412Z,11.68
2023-03-17T00:28:35.511Z,11.90
2023-03-17T00:29:39.257Z,11.30
2023-03-17T00:30:57.202Z,14.50
2023-03-17T00:32:08.559Z,12.60
2023-03-17T00:33:11.289Z,15.77
2023-03-17T00:34:18.429Z,14.93
2023-03-17T00:35:24.193Z,18.30
2023-03-17T00:36:30.695Z,19.02
2023-03-17T00:37:39.814Z,15.48
2023-03-17T00:38:43.202Z,17.73
2023-03-17T00:39:49.159Z,15.95
2023-03-17T00:40:53.554Z,18.25
2023-03-17T00:41:59.936Z,18.00
2023-03-17T00:43:12.211Z,17.15
2023-03-17T00:44:15.270Z,15.57
2023-03-17T00:45:18.038Z,13.30
2023-03-17T00:46:25.582Z,20.85
2023-03-17T00:47:33.166Z,16.85
2023-03-17T00:48:48.493Z,16.15
2023-03-17T00:49:53.661Z,18.42
2023-03-17T00:51:08.540Z,17.75
2023-03-17T00:52:14.329Z,20.25
2023-03-17T00:53:21.044Z,18.20
2023-03-17T00:55:50.753Z,20.05
2023-03-17T00:56:58.539Z,18.92
2023-03-17T00:58:03.977Z,21.52
2023-03-17T00:59:25.090Z,18.25
2023-03-17T01:00:38.473Z,18.55
2023-03-17T01:01:40.904Z,19.25
2023-03-17T01:02:50.033Z,17.85
2023-03-17T01:03:58.613Z,15.93
2023-03-17T01:05:07.064Z,23.40
2023-03-17T01:06:14.382Z,17.92
2023-03-17T01:07:19.877Z,17.08
2023-03-17T01:08:25.836Z,18.35
2023-03-17T01:09:30.991Z,17.65
2023-03-17T01:10:33.274Z,18.75
2023-03-17T01:11:41.413Z,17.40
2023-03-17T01:13:02.516Z,17.50
2023-03-17T01:14:04.935Z,17.63
2023-03-17T01:15:17.457Z,16.88
2023-03-17T01:16:24.874Z,15.65
2023-03-17T01:17:27.939Z,16.80
2023-03-17T01:18:30.330Z,18.70
2023-03-17T01:19:39.480Z,17.95
2023-03-17T01:20:50.611Z,15.02
2023-03-17T01:22:02.876Z,15.05
2023-03-17T01:23:17.756Z,16.95
2023-03-17T01:24:21.226Z,15.23
2023-03-17T01:25:36.452Z,16.23
2023-03-17T01:26:48.764Z,16.25
2023-03-17T01:27:52.835Z,19.10
2023-03-17T01:29:02.527Z,14.80
2023-03-17T01:30:14.417Z,15.93
2023-03-17T01:31:17.517Z,16.20
2023-03-17T01:32:21.718Z,15.98
2023-03-17T01:33:34.074Z,16.77
2023-03-17T01:34:36.747Z,17.45
2023-03-17T01:35:41.506Z,16.83
2023-03-17T01:36:47.758Z,16.88
2023-03-17T01:37:53.632Z,18.83
2023-03-17T01:39:02.732Z,16.50
2023-03-17T01:40:14.872Z,15.90
2023-03-17T01:41:35.721Z,11.98
2023-03-17T01:42:49.955Z,17.60
2023-03-17T01:43:58.256Z,16.38
2023-03-17T01:45:04.659Z,18.42
2023-03-17T01:46:31.001Z,17.20
2023-03-17T01:47:34.564Z,14.68
2023-03-17T01:48:41.372Z,15.05
2023-03-17T01:49:53.202Z,13.80
2023-03-17T01:51:00.255Z,16.10
2023-03-17T01:52:23.258Z,13.05
2023-03-17T01:53:37.172Z,12.73
2023-03-17T01:54:43.406Z,12.30
2023-03-17T01:55:49.386Z,15.40
2023-03-17T01:56:52.701Z,15.18
2023-03-17T01:58:01.326Z,15.20
2023-03-17T01:59:13.359Z,15.75
2023-03-17T02:00:18.192Z,14.10
2023-03-17T02:01:45.198Z,14.52
2023-03-17T02:02:50.314Z,20.10
2023-03-17T02:03:56.290Z,15.40
2023-03-17T02:05:06.290Z,12.95
2023-03-17T02:06:11.782Z,14.85
2023-03-17T02:07:46.876Z,13.32
2023-03-17T02:08:51.886Z,13.90
2023-03-17T02:09:55.765Z,13.70
2023-03-17T02:10:58.606Z,11.88
2023-03-17T02:12:05.582Z,13.77
2023-03-17T02:13:15.876Z,14.57
2023-03-17T02:14:20.910Z,13.48
2023-03-17T02:15:39.676Z,11.50
2023-03-17T02:16:45.402Z,14.63
2023-03-17T02:18:01.860Z,13.93
2023-03-17T02:19:14.459Z,13.48
2023-03-17T02:21:38.033Z,13.07
2023-03-17T02:22:45.596Z,11.85
2023-03-17T02:23:52.784Z,12.38
2023-03-17T02:24:59.665Z,14.77
2023-03-17T02:26:09.139Z,8.85
2023-03-17T02:27:42.060Z,13.68
2023-03-17T02:28:46.310Z,15.05
2023-03-17T02:29:49.564Z,10.60
2023-03-17T02:31:00.038Z,7.82
2023-03-17T02:32:18.150Z,8.82
2023-03-17T02:33:25.917Z,9.63
2023-03-17T02:34:37.740Z,11.40
2023-03-17T02:35:50.089Z,10.38
2023-03-17T02:36:53.553Z,12.40
2023-03-17T02:37:57.083Z,9.73
2023-03-17T02:39:00.918Z,10.90
2023-03-17T02:40:07.897Z,14.82
2023-03-17T02:41:10.991Z,10.02
2023-03-17T02:42:15.093Z,10.27
2023-03-17T02:43:26.008Z,10.98
2023-03-17T02:44:32.293Z,9.15
2023-03-17T02:45:34.585Z,6.95
2023-03-17T02:46:39.651Z,7.57
2023-03-17T02:47:45.561Z,11.85
2023-03-17T02:48:50.123Z,11.27
2023-03-17T02:50:00.907Z,9.63
2023-03-17T02:51:04.378Z,13.20
2023-03-17T02:52:07.559Z,10.50
2023-03-17T02:53:13.327Z,6.85
2023-03-17T02:54:16.836Z,11.13
2023-03-17T02:55:44.720Z,9.27
2023-03-17T02:56:47.083Z,10.50
2023-03-17T02:57:51.710Z,11.38
2023-03-17T03:00:11.167Z,9.35
2023-03-17T03:01:13.545Z,11.00
2023-03-17T03:02:17.341Z,9.13
2023-03-17T03:03:27.478Z,10.73
2023-03-17T03:04:29.787Z,8.75
2023-03-17T03:05:42.138Z,7.80
2023-03-17T03:06:53.355Z,9.63
2023-03-17T03:08:04.100Z,9.23
2023-03-17T03:09:11.944Z,11.07
2023-03-17T03:10:23.063Z,9.93
2023-03-17T03:11:26.783Z,13.38
2023-03-17T03:12:39.007Z,11.98
2023-03-17T03:13:44.742Z,6.22
2023-03-17T03:14:58.391Z,10.18
2023-03-17T03:16:26.952Z,9.90
2023-03-17T03:17:32.790Z,12.38
2023-03-17T03:18:43.751Z,10.73
2023-03-17T03:19:46.158Z,11.25
2023-03-17T03:20:50.001Z,11.02
2023-03-17T03:22:00.459Z,12.65
2023-03-17T03:23:05.287Z,10.55
2023-03-17T03:25:10.048Z,7.90
2023-03-17T03:25:34.609Z,7.50
2023-03-17T03:26:37.263Z,8.68
2023-03-17T03:27:49.531Z,7.75
2023-03-17T03:28:52.185Z,12.07
2023-03-17T03:29:54.326Z,9.27
2023-03-17T03:30:59.855Z,9.43
2023-03-17T03:33:05.097Z,11.45
2023-03-17T03:33:46.767Z,11.65
2023-03-17T03:34:58.338Z,9.07
2023-03-17T03:36:04.991Z,7.63
2023-03-17T03:37:10.795Z,9.57
2023-03-17T03:38:13.864Z,14.13
2023-03-17T03:39:19.241Z,11.95
2023-03-17T03:40:26.863Z,9.63
2023-03-17T03:41:30.321Z,9.60
2023-03-17T03:42:32.596Z,8.23
2023-03-17T03:43:39.033Z,16.25
2023-03-17T03:44:41.290Z,9.48
2023-03-17T03:45:46.596Z,8.90
2023-03-17T03:46:49.340Z,8.45
2023-03-17T03:48:00.377Z,8.35
2023-03-17T03:49:04.449Z,9.95
2023-03-17T03:50:17.216Z,9.10
2023-03-17T03:51:27.189Z,9.55
2023-03-17T03:52:32.345Z,8.05
2023-03-17T03:53:36.190Z,9.27
2023-03-17T03:54:46.149Z,9.85
2023-03-17T03:55:57.814Z,9.75
2023-03-17T03:57:02.686Z,9.35
2023-03-17T03:58:17.249Z,6.10
2023-03-17T03:59:33.500Z,10.57
2023-03-17T04:00:39.087Z,9.43
2023-03-17T04:01:45.825Z,10.55
2023-03-17T04:02:52.197Z,9.15
2023-03-17T04:03:59.182Z,9.90
2023-03-17T04:05:02.119Z,11.27
2023-03-17T04:06:09.203Z,11.75
2023-03-17T04:07:17.614Z,9.65
2023-03-17T04:08:24.352Z,8.40
2023-03-17T04:09:35.642Z,10.50
2023-03-17T04:10:37.980Z,11.25
2023-03-17T04:11:45.927Z,9.23
2023-03-17T04:12:53.748Z,10.25
2023-03-17T04:14:28.941Z,12.32
2023-03-17T04:15:32.974Z,11.32
2023-03-17T04:16:35.223Z,10.88
2023-03-17T04:17:37.581Z,12.40
2023-03-17T04:18:47.276Z,10.40
2023-03-17T04:21:09.064Z,11.38
2023-03-17T04:22:13.630Z,9.07
2023-03-17T04:23:18.946Z,11.70
2023-03-17T04:24:22.503Z,10.55
2023-03-17T04:25:33.491Z,12.73
2023-03-17T04:26:39.641Z,14.90
2023-03-17T04:27:58.382Z,14.50
2023-03-17T04:29:02.390Z,12.90
2023-03-17T04:30:09.600Z,13.27
2023-03-17T04:31:18.074Z,15.52
2023-03-17T04:32:27.526Z,24.63
2023-03-17T04:33:33.447Z,23.13
2023-03-17T04:34:38.791Z,24.55
2023-03-17T04:37:08.644Z,32.30
2023-03-17T04:38:19.691Z,56.00
2023-03-17T04:39:27.010Z,51.83
2023-03-17T04:40:29.809Z,80.32
2023-03-17T04:41:34.306Z,89.75
2023-03-17T04:42:39.466Z,108.43
2023-03-17T04:43:45.601Z,126.53
2023-03-17T04:44:50.625Z,174.52
2023-03-17T04:45:55.556Z,182.48
2023-03-17T04:47:05.629Z,202.38
2023-03-17T04:48:09.272Z,207.13
2023-03-17T04:49:20.289Z,271.15
2023-03-17T04:50:31.472Z,320.83
2023-03-17T04:51:36.994Z,314.48
2023-03-17T04:53:46.119Z,400.27
2023-03-17T04:54:50.365Z,390.85
2023-03-17T04:56:03.990Z,457.50
2023-03-17T04:57:16.711Z,496.95
2023-03-17T04:58:30.315Z,569.03
2023-03-17T04:59:35.696Z,548.85
2023-03-17T05:00:44.405Z,560.55
2023-03-17T05:01:47.362Z,552.78
2023-03-17T05:02:56.961Z,552.03
2023-03-17T05:03:59.348Z,526.35
2023-03-17T05:05:11.954Z,511.05
2023-03-17T05:07:35.252Z,433.70
2023-03-17T05:08:48.435Z,439.10
2023-03-17T05:09:59.630Z,389.85
2023-03-17T05:11:05.854Z,317.83
2023-03-17T05:12:12.398Z,313.25
2023-03-17T05:13:15.210Z,258.98
2023-03-17T05:14:24.259Z,220.05
2023-03-17T05:15:31.486Z,172.18
2023-03-17T05:16:41.349Z,172.18
2023-03-17T05:17:45.773Z,183.35
2023-03-17T05:18:57.744Z,197.77
2023-03-17T05:20:05.723Z,138.80
2023-03-17T05:21:13.207Z,126.47
2023-03-17T05:22:26.757Z,118.07
2023-03-17T05:23:33.397Z,95.03
2023-03-17T05:24:39.623Z,99.82
2023-03-17T05:25:45.402Z,113.82
2023-03-17T05:26:56.657Z,109.82
2023-03-17T05:28:09.432Z,130.55
2023-03-17T05:29:22.344Z,122.40
2023-03-17T05:30:33.297Z,106.45
2023-03-17T05:31:43.814Z,90.80
2023-03-17T05:32:50.478Z,91.45
2023-03-17T05:33:57.136Z,94.18
2023-03-17T05:35:06.233Z,82.20
2023-03-17T05:36:10.445Z,65.07
2023-03-17T05:37:14.321Z,63.88
2023-03-17T05:38:16.713Z,63.45
2023-03-17T05:39:20.705Z,61.72
2023-03-17T05:40:24.069Z,63.75
2023-03-17T05:41:35.318Z,47.28
2023-03-17T05:42:45.845Z,44.00
2023-03-17T05:43:54.096Z,57.30
2023-03-17T05:45:08.181Z,52.95
2023-03-17T05:46:11.413Z,56.83
2023-03-17T05:47:20.948Z,49.83
2023-03-17T05:48:33.349Z,37.65
2023-03-17T05:49:48.449Z,29.40
2023-03-17T05:50:59.950Z,30.98
2023-03-17T05:52:09.477Z,36.10
2023-03-17T05:53:15.836Z,32.13
2023-03-17T05:54:18.530Z,33.45
2023-03-17T05:55:26.207Z,30.80
2023-03-17T05:56:33.846Z,34.38
2023-03-17T05:57:45.337Z,27.27
2023-03-17T05:58:48.864Z,32.45
2023-03-17T05:59:57.032Z,28.98
2023-03-17T06:01:02.477Z,26.60
2023-03-17T06:02:11.963Z,29.05
2023-03-17T06:03:15.156Z,27.35
2023-03-17T06:04:19.771Z,31.77
2023-03-17T06:05:25.096Z,32.80
2023-03-17T06:06:28.219Z,31.13
2023-03-17T06:07:41.357Z,29.17
2023-03-17T06:08:58.039Z,31.88
2023-03-17T06:10:03.200Z,32.30
2023-03-17T06:11:11.755Z,38.53
2023-03-17T06:12:14.013Z,44.80
2023-03-17T06:13:20.319Z,42.50
2023-03-17T06:14:27.080Z,37.95
2023-03-17T06:16:38.982Z,25.50
2023-03-17T06:17:42.988Z,18.75
2023-03-17T06:18:46.013Z,17.13
2023-03-17T06:19:52.423Z,19.40
2023-03-17T06:20:56.381Z,21.02
2023-03-17T06:22:01.650Z,15.02
2023-03-17T06:23:07.020Z,18.65
2023-03-17T06:24:16.156Z,11.77
2023-03-17T06:25:27.585Z,11.60
2023-03-17T06:26:32.891Z,14.18
2023-03-17T06:27:45.206Z,10.60
2023-03-17T06:28:53.438Z,12.63
2023-03-17T06:30:02.780Z,13.13
2023-03-17T06:31:14.899Z,14.07
2023-03-17T06:32:25.088Z,13.05
2023-03-17T06:33:37.378Z,14.20
2023-03-17T06:34:46.618Z,11.57
2023-03-17T06:35:48.790Z,11.93
2023-03-17T06:36:51.452Z,11.43
2023-03-17T06:37:54.227Z,13.52
2023-03-17T06:39:07.751Z,8.57
2023-03-17T06:40:10.342Z,12.68
2023-03-17T06:41:12.611Z,11.95
2023-03-17T06:42:14.922Z,11.10
2023-03-17T06:43:19.759Z,9.15
2023-03-17T06:44:22.165Z,12.57
2023-03-17T06:45:24.522Z,11.85
2023-03-17T06:46:27.397Z,10.52
2023-03-17T06:47:33.898Z,11.82
2023-03-17T06:48:38.838Z,8.35
2023-03-17T06:49:49.841Z,8.32
2023-03-17T06:50:57.582Z,13.93
2023-03-17T06:52:00.930Z,13.10
2023-03-17T06:53:08.440Z,13.18
2023-03-17T06:54:12.493Z,12.20
2023-03-17T06:55:23.180Z,8.32
2023-03-17T06:56:30.580Z,11.07
2023-03-17T06:57:40.473Z,9.82
2023-03-17T06:58:43.326Z,10.40
2023-03-17T06:59:52.943Z,15.70
2023-03-17T07:01:02.228Z,8.80
2023-03-17T07:03:24.203Z,8.75
2023-03-17T07:04:38.731Z,11.43
2023-03-17T07:05:46.359Z,10.75
2023-03-17T07:06:51.257Z,9.43
2023-03-17T07:07:56.828Z,8.20
2023-03-17T07:09:01.954Z,11.57
2023-03-17T07:10:27.165Z,9.55
2023-03-17T07:11:29.537Z,8.55
2023-03-17T07:12:37.090Z,6.75
2023-03-17T07:13:42.524Z,10.35
2023-03-17T07:14:50.520Z,5.75
2023-03-17T07:15:58.535Z,8.55
2023-03-17T07:17:06.468Z,10.38
2023-03-17T07:18:13.640Z,5.88
2023-03-17T07:19:16.404Z,6.38
2023-03-17T07:20:23.051Z,12.02
2023-03-17T07:22:42.200Z,8.40
2023-03-17T07:23:48.066Z,8.70
2023-03-17T07:24:52.942Z,8.95
2023-03-17T07:25:58.254Z,6.35
2023-03-17T07:27:00.782Z,8.85
2023-03-17T07:28:03.449Z,9.20
2023-03-17T07:29:08.152Z,7.03
2023-03-17T07:30:15.112Z,14.80
2023-03-17T07:31:18.455Z,10.45
2023-03-17T07:32:23.836Z,7.50
2023-03-17T07:33:29.070Z,7.30
2023-03-17T07:34:31.361Z,10.07
2023-03-17T07:35:35.111Z,9.90
2023-03-17T07:36:45.248Z,8.82
2023-03-17T07:37:48.384Z,8.55
2023-03-17T07:38:50.762Z,9.40
2023-03-17T07:39:55.620Z,7.43
2023-03-17T07:41:01.023Z,10.52
2023-03-17T07:42:05.199Z,7.47
2023-03-17T07:43:10.668Z,9.00
2023-03-17T07:44:19.521Z,9.13
2023-03-17T07:45:23.691Z,6.65
2023-03-17T07:46:29.135Z,6.78
2023-03-17T07:47:45.012Z,7.38
2023-03-17T07:48:50.242Z,6.63
2023-03-17T07:49:53.993Z,8.05
2023-03-17T07:50:56.627Z,8.07
2023-03-17T07:52:00.108Z,8.38
2023-03-17T07:53:11.303Z,8.05
2023-03-17T07:54:18.864Z,9.00
2023-03-17T07:55:21.585Z,7.57
2023-03-17T07:56:24.621Z,8.38
2023-03-17T07:57:30.311Z,7.80
2023-03-17T07:58:33.814Z,7.53
2023-03-17T07:59:38.585Z,8.05
2023-03-17T08:00:41.009Z,8.07
2023-03-17T08:01:45.868Z,9.60
2023-03-17T08:03:06.843Z,9.23
2023-03-17T08:04:21.460Z,10.52
2023-03-17T08:05:27.446Z,15.40
2023-03-17T08:06:42.362Z,10.40
2023-03-17T08:07:50.997Z,7.82
2023-03-17T08:08:56.577Z,7.13
2023-03-17T08:10:02.821Z,9.15
2023-03-17T08:11:05.632Z,9.85
2023-03-17T08:12:12.879Z,8.40
2023-03-17T08:13:15.843Z,8.27
2023-03-17T08:14:25.373Z,8.18
2023-03-17T08:15:39.358Z,10.07
2023-03-17T08:16:45.369Z,9.68
2023-03-17T08:17:48.808Z,12.10
2023-03-17T08:18:51.156Z,8.20
2023-03-17T08:19:56.950Z,7.88
2023-03-17T08:21:05.643Z,8.20
2023-03-17T08:22:14.808Z,8.50
2023-03-17T08:23:23.463Z,7.85
2023-03-17T08:24:29.904Z,9.95
2023-03-17T08:25:35.112Z,9.07
2023-03-17T08:26:46.356Z,8.20
2023-03-17T08:27:59.356Z,12.05
2023-03-17T08:29:04.317Z,11.40
2023-03-17T08:30:08.878Z,8.48
2023-03-17T08:31:16.082Z,5.97
2023-03-17T08:32:20.939Z,6.63
2023-03-17T08:33:25.019Z,7.72
2023-03-17T08:34:28.603Z,8.52
2023-03-17T08:35:31.434Z,7.55
2023-03-17T08:36:36.952Z,8.68
2023-03-17T08:37:42.428Z,10.23
2023-03-17T08:38:47.878Z,9.50
2023-03-17T08:39:54.270Z,8.15
2023-03-17T08:41:15.183Z,11.98
2023-03-17T08:42:24.892Z,8.93
2023-03-17T08:43:29.096Z,7.45
2023-03-17T08:44:31.342Z,9.50
2023-03-17T08:45:43.565Z,13.32
2023-03-17T08:46:55.912Z,13.70
2023-03-17T08:47:58.601Z,13.70
2023-03-17T08:49:03.440Z,15.68
2023-03-17T08:50:27.200Z,11.60
2023-03-17T08:51:37.603Z,10.45
2023-03-17T08:52:41.596Z,9.52
2023-03-17T08:53:47.940Z,6.60
2023-03-17T08:54:50.462Z,10.77
2023-03-17T08:55:58.049Z,12.15
2023-03-17T08:57:05.218Z,12.02
2023-03-17T08:58:07.583Z,8.85
2023-03-17T08:59:10.425Z,9.05
2023-03-17T09:00:14.952Z,11.18
2023-03-17T09:01:21.429Z,12.43
2023-03-17T09:02:32.617Z,8.05
2023-03-17T09:03:36.345Z,7.35
2023-03-17T09:04:49.605Z,6.05
2023-03-17T09:05:59.558Z,12.70
2023-03-17T09:07:13.763Z,9.98
2023-03-17T09:08:19.592Z,7.65
2023-03-17T09:09:31.982Z,9.50
2023-03-17T09:10:35.561Z,8.90
2023-03-17T09:11:41.441Z,10.07
2023-03-17T09:12:53.566Z,11.55
2023-03-17T09:13:56.691Z,7.43
2023-03-17T09:15:06.202Z,9.68
2023-03-17T09:16:09.090Z,7.60
2023-03-17T09:17:15.574Z,8.48
2023-03-17T09:18:19.555Z,5.10
2023-03-17T09:19:26.741Z,6.25
2023-03-17T09:20:39.195Z,7.80
2023-03-17T09:21:41.794Z,5.25
2023-03-17T09:22:46.583Z,8.07
2023-03-17T09:23:51.607Z,5.32
2023-03-17T09:24:56.842Z,6.50
2023-03-17T09:26:01.214Z,6.18
2023-03-17T09:27:06.342Z,6.05
2023-03-17T09:28:08.937Z,7.65
2023-03-17T09:29:14.323Z,5.57
2023-03-17T09:30:19.476Z,4.63
2023-03-17T09:31:21.892Z,3.85
2023-03-17T09:32:24.093Z,4.47
2023-03-17T09:33:27.309Z,4.95
2023-03-17T09:34:29.903Z,5.90
2023-03-17T09:35:32.699Z,4.80
2023-03-17T09:36:35.116Z,4.97
2023-03-17T09:37:38.045Z,5.43
2023-03-17T09:38:40.380Z,4.38
2023-03-17T09:39:42.871Z,7.15
2023-03-17T09:40:53.352Z,6.15
2023-03-17T09:42:01.939Z,3.78
2023-03-17T09:43:11.176Z,3.58
2023-03-17T09:44:13.357Z,5.47
2023-03-17T09:45:29.947Z,6.55
2023-03-17T09:48:49.261Z,4.38
2023-03-17T09:49:52.643Z,5.20
2023-03-17T09:51:02.318Z,6.97
2023-03-17T09:52:04.885Z,8.15
2023-03-17T09:53:13.432Z,4.53
2023-03-17T09:54:31.541Z,6.65
2023-03-17T09:55:35.065Z,4.45
2023-03-17T09:56:38.442Z,4.75
2023-03-17T09:57:51.332Z,6.28
2023-03-17T09:58:58.644Z,3.85
2023-03-17T10:00:15.944Z,7.05
2023-03-17T10:01:30.217Z,8.60
2023-03-17T10:02:43.667Z,9.15
2023-03-17T10:03:58.213Z,9.55
2023-03-17T10:05:26.136Z,8.32
2023-03-17T10:06:34.517Z,6.45
2023-03-17T10:07:45.173Z,6.00
2023-03-17T10:08:59.780Z,6.78
2023-03-17T10:10:03.595Z,5.22
2023-03-17T10:12:17.015Z,5.70
2023-03-17T10:13:38.077Z,5.20
2023-03-17T10:14:46.361Z,6.18
2023-03-17T10:16:10.550Z,5.97
2023-03-17T10:17:23.997Z,5.97
2023-03-17T10:18:45.653Z,4.40
2023-03-17T10:20:04.631Z,3.92
2023-03-17T10:21:09.457Z,5.57
2023-03-17T10:22:11.629Z,7.38
2023-03-17T10:23:15.517Z,3.47
2023-03-17T10:24:19.029Z,4.35
2023-03-17T10:25:23.321Z,8.95
2023-03-17T10:26:42.462Z,6.43
2023-03-17T10:27:48.890Z,6.88
2023-03-17T10:28:51.720Z,6.47
2023-03-17T10:29:53.908Z,7.65
2023-03-17T10:31:21.576Z,4.88
2023-03-17T10:32:23.925Z,7.13
2023-03-17T10:33:28.680Z,5.60
2023-03-17T10:34:38.038Z,5.50
2023-03-17T10:35:48.667Z,8.30
2023-03-17T10:37:01.629Z,18.90
2023-03-17T10:38:25.820Z,11.82
2023-03-17T10:39:33.103Z,12.38
2023-03-17T10:40:36.357Z,4.97
2023-03-17T10:41:48.846Z,4.20
2023-03-17T10:42:56.633Z,9.65
2023-03-17T10:43:59.701Z,5.30
2023-03-17T10:45:12.613Z,5.65
2023-03-17T10:46:25.375Z,4.47
2023-03-17T10:47:30.600Z,7.55
2023-03-17T10:48:37.736Z,5.30
2023-03-17T10:49:42.896Z,10.77
2023-03-17T10:50:48.608Z,7.00
2023-03-17T10:51:55.550Z,6.80
2023-03-17T10:53:04.009Z,6.40
2023-03-17T10:54:14.072Z,4.70
2023-03-17T10:55:19.572Z,7.47
2023-03-17T10:56:27.576Z,5.55
2023-03-17T10:57:30.570Z,5.68
2023-03-17T10:58:37.613Z,4.40
2023-03-17T10:59:44.790Z,4.25
2023-03-17T11:00:52.779Z,4.95
2023-03-17T11:01:58.710Z,5.53
2023-03-17T11:03:04.573Z,5.45
2023-03-17T11:04:26.644Z,5.15
2023-03-17T11:05:30.010Z,6.70
2023-03-17T11:06:36.422Z,5.25
2023-03-17T11:07:40.135Z,5.20
2023-03-17T11:08:55.966Z,4.95
2023-03-17T11:10:01.236Z,6.50
2023-03-17T11:11:05.816Z,5.38
2023-03-17T11:12:19.318Z,4.82
2023-03-17T11:13:23.333Z,9.68
2023-03-17T11:14:33.621Z,6.32
2023-03-17T11:15:42.479Z,4.97
2023-03-17T11:16:54.995Z,4.85
2023-03-17T11:17:59.593Z,9.23
2023-03-17T11:19:02.820Z,5.72
2023-03-17T11:20:05.395Z,4.97
2023-03-17T11:21:18.865Z,5.53
2023-03-17T11:22:38.613Z,4.45
2023-03-17T11:23:47.438Z,5.78
2023-03-17T11:24:54.009Z,5.32
2023-03-17T11:26:21.446Z,4.95
2023-03-17T11:27:28.967Z,5.80
2023-03-17T11:28:35.490Z,7.38
2023-03-17T11:29:43.279Z,7.10
2023-03-17T11:31:13.222Z,5.05
2023-03-17T11:32:25.373Z,6.03
2023-03-17T11:33:47.359Z,2.88
2023-03-17T11:35:02.499Z,3.75
2023-03-17T11:36:14.264Z,6.22
2023-03-17T11:37:19.396Z,4.65
2023-03-17T11:38:31.604Z,3.70
2023-03-17T11:39:46.432Z,8.10
2023-03-17T11:40:49.236Z,7.30
2023-03-17T11:41:54.107Z,4.80
2023-03-17T11:42:57.328Z,6.82
2023-03-17T11:44:25.107Z,3.78
2023-03-17T11:45:50.944Z,3.70
2023-03-17T11:46:56.554Z,4.93
2023-03-17T11:48:00.000Z,4.43
2023-03-17T11:50:21.094Z,5.32
2023-03-17T11:51:50.979Z,4.22
2023-03-17T11:52:53.552Z,5.78
2023-03-17T11:53:55.848Z,4.65
2023-03-17T11:55:01.186Z,6.90
2023-03-17T11:56:06.728Z,5.75
2023-03-17T11:57:36.807Z,5.13
2023-03-17T11:58:47.194Z,4.57
2023-03-17T11:59:59.578Z,4.35
2023-03-17T12:01:09.221Z,3.70
2023-03-17T12:02:23.778Z,5.55
2023-03-17T12:03:31.674Z,3.70
2023-03-17T12:04:38.171Z,3.33
2023-03-17T12:05:41.268Z,7.85
2023-03-17T12:06:48.487Z,5.18
2023-03-17T12:07:58.557Z,4.30
2023-03-17T12:09:03.410Z,6.00
2023-03-17T12:10:15.920Z,7.40
2023-03-17T12:11:24.775Z,6.28
2023-03-17T12:12:30.736Z,5.47
2023-03-17T12:13:40.261Z,4.38
2023-03-17T12:14:46.761Z,8.07
2023-03-17T12:16:14.600Z,8.52
2023-03-17T12:17:26.523Z,4.03
2023-03-17T12:18:33.247Z,14.73
2023-03-17T12:19:42.674Z,18.33
2023-03-17T12:21:02.320Z,31.73
2023-03-17T12:22:21.594Z,8.57
2023-03-17T12:23:29.835Z,9.30
2023-03-17T12:24:39.141Z,6.20
2023-03-17T12:25:50.871Z,9.85
2023-03-17T12:26:56.434Z,8.50
2023-03-17T12:28:04.550Z,8.50
2023-03-17T12:29:09.343Z,9.32
2023-03-17T12:30:17.839Z,10.82
2023-03-17T12:31:23.023Z,4.20
2023-03-17T12:32:25.272Z,5.53
2023-03-17T12:33:32.367Z,5.30
2023-03-17T12:35:03.094Z,7.88
2023-03-17T12:36:06.167Z,5.07
2023-03-17T12:37:09.939Z,8.07
2023-03-17T12:38:16.505Z,5.68
2023-03-17T12:39:22.021Z,4.30
2023-03-17T12:40:36.301Z,11.95
2023-03-17T12:41:44.173Z,6.75
2023-03-17T12:42:47.607Z,5.45
2023-03-17T12:44:11.436Z,78.13
2023-03-17T12:45:33.307Z,112.88
2023-03-17T12:46:48.291Z,15.73
2023-03-17T12:47:56.333Z,23.95
2023-03-17T12:49:22.136Z,42.60
2023-03-17T12:50:33.352Z,29.70
2023-03-17T12:51:44.962Z,13.57
2023-03-17T12:53:11.172Z,13.85
2023-03-17T12:54:24.729Z,7.90
2023-03-17T12:55:28.128Z,4.32
2023-03-17T12:56:34.343Z,5.03
2023-03-17T12:57:46.896Z,4.60
2023-03-17T12:58:52.092Z,4.30
2023-03-17T13:00:05.784Z,7.03
2023-03-17T13:01:24.393Z,6.00
2023-03-17T13:02:29.580Z,11.05
2023-03-17T13:03:33.380Z,25.88
2023-03-17T13:04:36.818Z,35.45
2023-03-17T13:05:39.582Z,9.05
2023-03-17T13:06:54.700Z,7.15
2023-03-17T13:07:59.952Z,3.67
2023-03-17T13:09:22.910Z,4.13
2023-03-17T13:10:35.773Z,4.80
2023-03-17T13:11:38.249Z,4.78
2023-03-17T13:12:40.370Z,5.88
2023-03-17T13:13:42.914Z,4.47
2023-03-17T13:14:46.545Z,4.65
2023-03-17T13:16:51.904Z,12.55
2023-03-17T13:18:12.811Z,5.85
2023-03-17T13:19:17.617Z,3.65
2023-03-17T13:20:21.027Z,5.28
2023-03-17T13:21:23.903Z,8.25
2023-03-17T13:22:40.311Z,4.63
2023-03-17T13:23:52.397Z,3.60
2023-03-17T13:25:14.053Z,4.35
2023-03-17T13:26:21.550Z,4.82
2023-03-17T13:27:32.669Z,6.00
2023-03-17T13:28:37.778Z,5.30
2023-03-17T13:29:45.258Z,7.65
2023-03-17T13:31:06.631Z,4.53
2023-03-17T13:32:34.440Z,4.57
2023-03-17T13:33:41.882Z,7.30
2023-03-17T13:34:53.833Z,4.32
2023-03-17T13:36:12.880Z,7.60
2023-03-17T13:37:24.041Z,4.13
2023-03-17T13:38:32.078Z,4.43
2023-03-17T13:39:53.844Z,4.93
2023-03-17T13:41:26.820Z,6.05
2023-03-17T13:42:40.023Z,6.72
2023-03-17T13:43:57.447Z,6.93
2023-03-17T13:45:22.845Z,5.90
2023-03-17T13:46:48.200Z,8.15
2023-03-17T13:47:52.552Z,8.15
2023-03-17T13:49:00.604Z,6.68
2023-03-17T13:50:28.329Z,4.68
2023-03-17T13:51:49.260Z,5.28
2023-03-17T13:55:23.918Z,5.75
2023-03-17T13:56:29.828Z,7.90
2023-03-17T13:57:44.479Z,8.02
2023-03-17T13:59:06.933Z,12.50
2023-03-17T14:00:55.194Z,6.22
2023-03-17T14:01:56.037Z,7.82
2023-03-17T14:03:14.944Z,5.55
2023-03-17T14:04:27.715Z,5.60
2023-03-17T14:05:41.842Z,6.65
2023-03-17T14:06:53.306Z,3.53
2023-03-17T14:08:03.869Z,11.65
2023-03-17T14:09:28.108Z,14.63
2023-03-17T14:10:33.158Z,10.13
2023-03-17T14:11:45.482Z,18.08
2023-03-17T14:13:06.367Z,14.55
2023-03-17T14:14:33.364Z,19.80
2023-03-17T14:15:51.917Z,13.77
2023-03-17T14:17:06.994Z,7.07
2023-03-17T14:18:20.784Z,17.95
2023-03-17T14:19:30.805Z,23.10
2023-03-17T14:20:44.967Z,21.15
2023-03-17T14:21:48.058Z,8.80
2023-03-17T14:22:59.962Z,7.97
2023-03-17T14:24:37.127Z,7.82
2023-03-17T14:25:46.087Z,8.25
2023-03-17T14:26:56.056Z,5.82
2023-03-17T14:28:01.257Z,2.92
2023-03-17T14:29:06.407Z,5.45
2023-03-17T14:30:09.946Z,6.90
2023-03-17T14:31:25.349Z,5.38
2023-03-17T14:32:29.660Z,4.75
2023-03-17T14:33:40.019Z,5.25
2023-03-17T14:34:50.686Z,7.80
2023-03-17T14:35:59.721Z,8.60
2023-03-17T14:37:02.902Z,8.45
2023-03-17T14:38:19.206Z,7.55
2023-03-17T14:39:24.809Z,16.30
2023-03-17T14:40:31.318Z,16.73
2023-03-17T14:41:44.396Z,17.10
2023-03-17T14:42:49.649Z,71.70
2023-03-17T14:43:52.583Z,25.65
2023-03-17T14:45:09.137Z,25.65
2023-03-17T14:48:55.635Z,9.15
2023-03-17T14:50:01.733Z,7.70
2023-03-17T14:51:10.876Z,10.82
2023-03-17T14:52:28.557Z,8.88
2023-03-17T14:53:31.549Z,14.45
2023-03-17T14:54:38.889Z,14.75
2023-03-17T14:55:43.637Z,13.85
2023-03-17T14:56:53.172Z,8.07
2023-03-17T14:58:03.727Z,11.50
2023-03-17T14:59:30.690Z,16.98
2023-03-17T15:00:45.941Z,12.07
2023-03-17T15:01:54.571Z,15.02
2023-03-17T15:03:24.403Z,8.27
2023-03-17T15:04:33.512Z,9.27
2023-03-17T15:05:45.703Z,13.02
2023-03-17T15:07:00.490Z,21.52
2023-03-17T15:08:36.337Z,17.38
2023-03-17T15:09:57.796Z,16.75
2023-03-17T15:11:11.719Z,11.73
2023-03-17T15:12:25.468Z,42.55
2023-03-17T15:13:36.638Z,23.10
2023-03-17T15:14:50.683Z,20.10
2023-03-17T15:16:03.873Z,9.77
2023-03-17T15:17:14.627Z,22.13
2023-03-17T15:18:20.217Z,15.48
2023-03-17T15:19:30.578Z,13.93
2023-03-17T15:20:43.380Z,20.25
2023-03-17T15:21:53.783Z,19.73
2023-03-17T15:23:03.321Z,17.17
2023-03-17T15:24:09.922Z,24.58
2023-03-17T15:25:26.533Z,16.45